sensor_id;sensor_type;location;lat;lon;timestamp;P1;durP1;ratioP1;P2;durP2;ratioP2
23119;SDS011;11729;50.836;4.330;2022-07-22T00:01:17;22.23;;;8.20;;
23119;SDS011;11729;50.836;4.330;2022-07-22T00:03:44;18.02;;;8.77;;
23119;SDS011;11729;50.836;4.330;2022-07-22T00:06:10;20.95;;;8.32;;
23119;SDS011;11729;50.836;4.330;2022-07-22T00:08:36;20.98;;;8.38;;
23119;SDS011;11729;50.836;4.330;2022-07-22T00:11:01;22.55;;;8.48;;
23119;SDS011;11729;50.836;4.330;2022-07-22T00:13:27;19.20;;;8.80;;
23119;SDS011;11729;50.836;4.330;2022-07-22T00:15:52;30.20;;;8.57;;
23119;SDS011;11729;50.836;4.330;2022-07-22T00:18:18;23.77;;;8.32;;
23119;SDS011;11729;50.836;4.330;2022-07-22T00:20:44;23.73;;;8.70;;
23119;SDS011;11729;50.836;4.330;2022-07-22T00:23:09;25.02;;;9.20;;
23119;SDS011;11729;50.836;4.330;2022-07-22T00:25:35;21.33;;;8.77;;
23119;SDS011;11729;50.836;4.330;2022-07-22T00:28:01;22.67;;;8.88;;
23119;SDS011;11729;50.836;4.330;2022-07-22T00:30:26;23.80;;;8.52;;
23119;SDS011;11729;50.836;4.330;2022-07-22T00:32:52;17.42;;;8.40;;
23119;SDS011;11729;50.836;4.330;2022-07-22T00:35:18;19.77;;;8.95;;
23119;SDS011;11729;50.836;4.330;2022-07-22T00:37:43;25.30;;;8.93;;
23119;SDS011;11729;50.836;4.330;2022-07-22T00:40:09;24.02;;;8.50;;
23119;SDS011;11729;50.836;4.330;2022-07-22T00:42:35;25.50;;;9.65;;
23119;SDS011;11729;50.836;4.330;2022-07-22T00:45:01;22.88;;;9.23;;
23119;SDS011;11729;50.836;4.330;2022-07-22T00:47:27;24.40;;;8.70;;
23119;SDS011;11729;50.836;4.330;2022-07-22T00:49:53;25.90;;;9.30;;
23119;SDS011;11729;50.836;4.330;2022-07-22T00:52:19;23.88;;;9.60;;
23119;SDS011;11729;50.836;4.330;2022-07-22T00:54:46;26.40;;;9.32;;
23119;SDS011;11729;50.836;4.330;2022-07-22T00:57:12;21.17;;;9.18;;
23119;SDS011;11729;50.836;4.330;2022-07-22T00:59:38;21.95;;;9.30;;
23119;SDS011;11729;50.836;4.330;2022-07-22T01:02:03;26.05;;;10.13;;
23119;SDS011;11729;50.836;4.330;2022-07-22T01:04:29;28.13;;;9.70;;
23119;SDS011;11729;50.836;4.330;2022-07-22T01:06:55;25.13;;;9.90;;
23119;SDS011;11729;50.836;4.330;2022-07-22T01:09:21;19.42;;;9.32;;
23119;SDS011;11729;50.836;4.330;2022-07-22T01:11:47;22.58;;;9.55;;
23119;SDS011;11729;50.836;4.330;2022-07-22T01:14:12;18.95;;;9.00;;
23119;SDS011;11729;50.836;4.330;2022-07-22T01:16:38;20.42;;;9.30;;
23119;SDS011;11729;50.836;4.330;2022-07-22T01:19:04;24.75;;;10.10;;
23119;SDS011;11729;50.836;4.330;2022-07-22T01:21:30;24.17;;;10.25;;
23119;SDS011;11729;50.836;4.330;2022-07-22T01:23:56;23.85;;;9.48;;
23119;SDS011;11729;50.836;4.330;2022-07-22T01:26:22;20.95;;;9.40;;
23119;SDS011;11729;50.836;4.330;2022-07-22T01:28:47;22.80;;;9.68;;
23119;SDS011;11729;50.836;4.330;2022-07-22T01:31:13;17.60;;;9.73;;
23119;SDS011;11729;50.836;4.330;2022-07-22T01:33:38;29.05;;;9.95;;
23119;SDS011;11729;50.836;4.330;2022-07-22T01:36:04;23.67;;;10.00;;
23119;SDS011;11729;50.836;4.330;2022-07-22T01:38:30;19.60;;;9.77;;
23119;SDS011;11729;50.836;4.330;2022-07-22T01:40:56;20.35;;;9.60;;
23119;SDS011;11729;50.836;4.330;2022-07-22T01:43:22;22.77;;;9.50;;
23119;SDS011;11729;50.836;4.330;2022-07-22T01:45:48;21.52;;;9.65;;
23119;SDS011;11729;50.836;4.330;2022-07-22T01:48:16;26.83;;;9.85;;
23119;SDS011;11729;50.836;4.330;2022-07-22T01:50:41;20.67;;;9.75;;
23119;SDS011;11729;50.836;4.330;2022-07-22T01:53:09;18.17;;;9.35;;
23119;SDS011;11729;50.836;4.330;2022-07-22T01:55:35;19.15;;;9.25;;
23119;SDS011;11729;50.836;4.330;2022-07-22T01:58:00;28.27;;;10.05;;
23119;SDS011;11729;50.836;4.330;2022-07-22T02:00:27;25.48;;;9.90;;
23119;SDS011;11729;50.836;4.330;2022-07-22T02:02:53;21.30;;;10.45;;
23119;SDS011;11729;50.836;4.330;2022-07-22T02:05:18;22.58;;;8.85;;
23119;SDS011;11729;50.836;4.330;2022-07-22T02:07:44;25.10;;;9.93;;
23119;SDS011;11729;50.836;4.330;2022-07-22T02:10:10;18.92;;;9.57;;
23119;SDS011;11729;50.836;4.330;2022-07-22T02:12:35;26.00;;;9.80;;
23119;SDS011;11729;50.836;4.330;2022-07-22T02:15:02;19.00;;;9.05;;
23119;SDS011;11729;50.836;4.330;2022-07-22T02:17:28;25.13;;;9.23;;
23119;SDS011;11729;50.836;4.330;2022-07-22T02:19:53;19.92;;;9.70;;
23119;SDS011;11729;50.836;4.330;2022-07-22T02:22:19;18.77;;;9.98;;
23119;SDS011;11729;50.836;4.330;2022-07-22T02:24:45;27.23;;;10.35;;
23119;SDS011;11729;50.836;4.330;2022-07-22T02:27:11;32.60;;;9.77;;
23119;SDS011;11729;50.836;4.330;2022-07-22T02:29:36;24.98;;;9.30;;
23119;SDS011;11729;50.836;4.330;2022-07-22T02:32:03;23.65;;;10.73;;
23119;SDS011;11729;50.836;4.330;2022-07-22T02:34:29;22.98;;;9.88;;
23119;SDS011;11729;50.836;4.330;2022-07-22T02:36:54;20.13;;;10.48;;
23119;SDS011;11729;50.836;4.330;2022-07-22T02:39:20;20.15;;;9.68;;
23119;SDS011;11729;50.836;4.330;2022-07-22T02:41:45;22.83;;;9.75;;
23119;SDS011;11729;50.836;4.330;2022-07-22T02:44:11;21.65;;;9.82;;
23119;SDS011;11729;50.836;4.330;2022-07-22T02:46:37;23.00;;;11.02;;
23119;SDS011;11729;50.836;4.330;2022-07-22T02:49:02;23.05;;;10.25;;
23119;SDS011;11729;50.836;4.330;2022-07-22T02:51:29;24.02;;;9.85;;
23119;SDS011;11729;50.836;4.330;2022-07-22T02:53:55;22.17;;;10.80;;
23119;SDS011;11729;50.836;4.330;2022-07-22T02:56:21;24.75;;;9.88;;
23119;SDS011;11729;50.836;4.330;2022-07-22T02:58:46;20.58;;;9.93;;
23119;SDS011;11729;50.836;4.330;2022-07-22T03:01:13;22.08;;;9.88;;
23119;SDS011;11729;50.836;4.330;2022-07-22T03:03:38;19.90;;;9.95;;
23119;SDS011;11729;50.836;4.330;2022-07-22T03:06:04;25.42;;;10.45;;
23119;SDS011;11729;50.836;4.330;2022-07-22T03:08:30;21.98;;;10.65;;
23119;SDS011;11729;50.836;4.330;2022-07-22T03:10:56;27.15;;;10.40;;
23119;SDS011;11729;50.836;4.330;2022-07-22T03:13:21;20.92;;;10.50;;
23119;SDS011;11729;50.836;4.330;2022-07-22T03:15:47;16.08;;;9.95;;
23119;SDS011;11729;50.836;4.330;2022-07-22T03:18:13;27.92;;;10.65;;
23119;SDS011;11729;50.836;4.330;2022-07-22T03:20:39;19.10;;;10.50;;
23119;SDS011;11729;50.836;4.330;2022-07-22T03:23:04;29.77;;;10.38;;
23119;SDS011;11729;50.836;4.330;2022-07-22T03:25:30;26.55;;;10.30;;
23119;SDS011;11729;50.836;4.330;2022-07-22T03:27:57;25.25;;;9.95;;
23119;SDS011;11729;50.836;4.330;2022-07-22T03:30:23;23.02;;;10.25;;
23119;SDS011;11729;50.836;4.330;2022-07-22T03:32:48;20.00;;;10.32;;
23119;SDS011;11729;50.836;4.330;2022-07-22T03:35:15;27.20;;;11.10;;
23119;SDS011;11729;50.836;4.330;2022-07-22T03:37:41;29.60;;;11.18;;
23119;SDS011;11729;50.836;4.330;2022-07-22T03:40:07;24.23;;;10.32;;
23119;SDS011;11729;50.836;4.330;2022-07-22T03:42:34;30.63;;;10.65;;
23119;SDS011;11729;50.836;4.330;2022-07-22T03:45:00;25.17;;;10.00;;
23119;SDS011;11729;50.836;4.330;2022-07-22T03:47:26;26.67;;;9.93;;
23119;SDS011;11729;50.836;4.330;2022-07-22T03:49:52;21.05;;;9.70;;
23119;SDS011;11729;50.836;4.330;2022-07-22T03:52:18;23.40;;;9.70;;
23119;SDS011;11729;50.836;4.330;2022-07-22T03:54:44;21.83;;;9.63;;
23119;SDS011;11729;50.836;4.330;2022-07-22T03:57:10;23.35;;;9.57;;
23119;SDS011;11729;50.836;4.330;2022-07-22T03:59:38;27.35;;;9.60;;
23119;SDS011;11729;50.836;4.330;2022-07-22T04:02:03;31.95;;;9.77;;
23119;SDS011;11729;50.836;4.330;2022-07-22T04:04:29;18.25;;;9.30;;
23119;SDS011;11729;50.836;4.330;2022-07-22T04:06:55;26.90;;;9.18;;
23119;SDS011;11729;50.836;4.330;2022-07-22T04:09:22;20.60;;;8.98;;
23119;SDS011;11729;50.836;4.330;2022-07-22T04:11:48;22.92;;;9.25;;
23119;SDS011;11729;50.836;4.330;2022-07-22T04:14:15;32.78;;;10.32;;
23119;SDS011;11729;50.836;4.330;2022-07-22T04:16:41;17.05;;;8.55;;
23119;SDS011;11729;50.836;4.330;2022-07-22T04:19:09;19.42;;;8.57;;
23119;SDS011;11729;50.836;4.330;2022-07-22T04:21:35;23.08;;;8.63;;
23119;SDS011;11729;50.836;4.330;2022-07-22T04:24:01;17.23;;;9.02;;
23119;SDS011;11729;50.836;4.330;2022-07-22T04:26:27;23.35;;;8.73;;
23119;SDS011;11729;50.836;4.330;2022-07-22T04:28:53;18.05;;;8.75;;
23119;SDS011;11729;50.836;4.330;2022-07-22T04:31:19;20.17;;;9.05;;
23119;SDS011;11729;50.836;4.330;2022-07-22T04:33:44;23.45;;;9.05;;
23119;SDS011;11729;50.836;4.330;2022-07-22T04:36:10;26.48;;;8.98;;
23119;SDS011;11729;50.836;4.330;2022-07-22T04:38:35;23.38;;;9.02;;
23119;SDS011;11729;50.836;4.330;2022-07-22T04:41:01;25.20;;;9.00;;
23119;SDS011;11729;50.836;4.330;2022-07-22T04:43:27;16.50;;;9.35;;
23119;SDS011;11729;50.836;4.330;2022-07-22T04:45:52;25.77;;;8.60;;
23119;SDS011;11729;50.836;4.330;2022-07-22T04:48:19;17.20;;;9.20;;
23119;SDS011;11729;50.836;4.330;2022-07-22T04:50:44;22.98;;;8.80;;
23119;SDS011;11729;50.836;4.330;2022-07-22T04:53:10;18.52;;;7.95;;
23119;SDS011;11729;50.836;4.330;2022-07-22T04:55:36;22.20;;;8.70;;
23119;SDS011;11729;50.836;4.330;2022-07-22T04:58:01;21.17;;;8.48;;
23119;SDS011;11729;50.836;4.330;2022-07-22T05:00:27;19.80;;;8.45;;
23119;SDS011;11729;50.836;4.330;2022-07-22T05:02:53;20.10;;;8.23;;
23119;SDS011;11729;50.836;4.330;2022-07-22T05:05:19;20.98;;;8.15;;
23119;SDS011;11729;50.836;4.330;2022-07-22T05:07:45;22.35;;;8.80;;
23119;SDS011;11729;50.836;4.330;2022-07-22T05:10:11;25.02;;;8.10;;
23119;SDS011;11729;50.836;4.330;2022-07-22T05:12:36;16.58;;;8.65;;
23119;SDS011;11729;50.836;4.330;2022-07-22T05:15:02;27.80;;;8.95;;
23119;SDS011;11729;50.836;4.330;2022-07-22T05:17:29;18.05;;;8.77;;
23119;SDS011;11729;50.836;4.330;2022-07-22T05:19:54;22.63;;;9.60;;
23119;SDS011;11729;50.836;4.330;2022-07-22T05:22:20;24.08;;;9.73;;
23119;SDS011;11729;50.836;4.330;2022-07-22T05:24:45;17.33;;;9.40;;
23119;SDS011;11729;50.836;4.330;2022-07-22T05:27:11;23.83;;;9.35;;
23119;SDS011;11729;50.836;4.330;2022-07-22T05:29:37;21.27;;;9.82;;
23119;SDS011;11729;50.836;4.330;2022-07-22T05:32:02;19.13;;;10.80;;
23119;SDS011;11729;50.836;4.330;2022-07-22T05:34:28;26.90;;;11.25;;
23119;SDS011;11729;50.836;4.330;2022-07-22T05:36:54;25.02;;;10.38;;
23119;SDS011;11729;50.836;4.330;2022-07-22T05:39:20;27.08;;;10.60;;
23119;SDS011;11729;50.836;4.330;2022-07-22T05:41:46;25.85;;;10.05;;
23119;SDS011;11729;50.836;4.330;2022-07-22T05:44:11;28.20;;;10.27;;
23119;SDS011;11729;50.836;4.330;2022-07-22T05:46:37;26.67;;;9.65;;
23119;SDS011;11729;50.836;4.330;2022-07-22T05:49:03;22.08;;;9.57;;
23119;SDS011;11729;50.836;4.330;2022-07-22T05:51:28;23.27;;;9.65;;
23119;SDS011;11729;50.836;4.330;2022-07-22T05:53:54;21.98;;;9.07;;
23119;SDS011;11729;50.836;4.330;2022-07-22T05:56:21;26.27;;;10.07;;
23119;SDS011;11729;50.836;4.330;2022-07-22T05:58:46;20.30;;;8.60;;
23119;SDS011;11729;50.836;4.330;2022-07-22T06:01:12;21.92;;;9.68;;
23119;SDS011;11729;50.836;4.330;2022-07-22T06:03:38;24.05;;;9.52;;
23119;SDS011;11729;50.836;4.330;2022-07-22T06:06:04;12.15;;;8.15;;
23119;SDS011;11729;50.836;4.330;2022-07-22T06:08:33;15.82;;;9.20;;
23119;SDS011;11729;50.836;4.330;2022-07-22T06:11:00;17.42;;;8.65;;
23119;SDS011;11729;50.836;4.330;2022-07-22T06:13:26;19.98;;;9.43;;
23119;SDS011;11729;50.836;4.330;2022-07-22T06:15:53;21.73;;;9.52;;
23119;SDS011;11729;50.836;4.330;2022-07-22T06:18:19;20.42;;;9.43;;
23119;SDS011;11729;50.836;4.330;2022-07-22T06:20:44;20.58;;;8.90;;
23119;SDS011;11729;50.836;4.330;2022-07-22T06:23:10;12.38;;;7.40;;
23119;SDS011;11729;50.836;4.330;2022-07-22T06:25:36;12.65;;;8.20;;
23119;SDS011;11729;50.836;4.330;2022-07-22T06:28:02;16.80;;;8.70;;
23119;SDS011;11729;50.836;4.330;2022-07-22T06:30:28;14.32;;;8.13;;
23119;SDS011;11729;50.836;4.330;2022-07-22T06:32:53;11.55;;;8.13;;
23119;SDS011;11729;50.836;4.330;2022-07-22T06:35:19;12.90;;;7.85;;
23119;SDS011;11729;50.836;4.330;2022-07-22T06:37:44;14.07;;;8.07;;
23119;SDS011;11729;50.836;4.330;2022-07-22T06:40:10;12.07;;;6.93;;
23119;SDS011;11729;50.836;4.330;2022-07-22T06:42:36;14.23;;;7.43;;
23119;SDS011;11729;50.836;4.330;2022-07-22T06:45:03;11.18;;;6.95;;
23119;SDS011;11729;50.836;4.330;2022-07-22T06:47:29;11.60;;;6.50;;
23119;SDS011;11729;50.836;4.330;2022-07-22T06:49:57;10.98;;;6.80;;
23119;SDS011;11729;50.836;4.330;2022-07-22T06:52:22;9.30;;;6.05;;
23119;SDS011;11729;50.836;4.330;2022-07-22T06:54:49;10.30;;;6.25;;
23119;SDS011;11729;50.836;4.330;2022-07-22T06:57:14;13.18;;;6.88;;
23119;SDS011;11729;50.836;4.330;2022-07-22T06:59:40;12.23;;;7.20;;
23119;SDS011;11729;50.836;4.330;2022-07-22T07:02:06;12.88;;;7.20;;
23119;SDS011;11729;50.836;4.330;2022-07-22T07:04:32;17.33;;;7.53;;
23119;SDS011;11729;50.836;4.330;2022-07-22T07:06:59;12.50;;;6.88;;
23119;SDS011;11729;50.836;4.330;2022-07-22T07:09:25;12.75;;;6.97;;
23119;SDS011;11729;50.836;4.330;2022-07-22T07:11:50;11.68;;;7.00;;
23119;SDS011;11729;50.836;4.330;2022-07-22T07:14:16;13.82;;;6.82;;
23119;SDS011;11729;50.836;4.330;2022-07-22T07:16:42;16.27;;;6.85;;
23119;SDS011;11729;50.836;4.330;2022-07-22T07:19:08;13.13;;;7.18;;
23119;SDS011;11729;50.836;4.330;2022-07-22T07:21:34;11.80;;;6.63;;
23119;SDS011;11729;50.836;4.330;2022-07-22T07:23:59;13.60;;;6.82;;
23119;SDS011;11729;50.836;4.330;2022-07-22T07:26:27;8.55;;;6.50;;
23119;SDS011;11729;50.836;4.330;2022-07-22T07:28:53;14.30;;;6.93;;
23119;SDS011;11729;50.836;4.330;2022-07-22T07:31:19;15.77;;;7.10;;
23119;SDS011;11729;50.836;4.330;2022-07-22T07:33:45;10.07;;;6.95;;
23119;SDS011;11729;50.836;4.330;2022-07-22T07:36:10;12.25;;;7.40;;
23119;SDS011;11729;50.836;4.330;2022-07-22T07:38:36;12.07;;;7.40;;
23119;SDS011;11729;50.836;4.330;2022-07-22T07:41:02;14.75;;;7.32;;
23119;SDS011;11729;50.836;4.330;2022-07-22T07:43:28;11.10;;;7.13;;
23119;SDS011;11729;50.836;4.330;2022-07-22T07:45:53;10.48;;;6.88;;
23119;SDS011;11729;50.836;4.330;2022-07-22T07:48:19;10.02;;;6.95;;
23119;SDS011;11729;50.836;4.330;2022-07-22T07:50:45;14.15;;;6.80;;
23119;SDS011;11729;50.836;4.330;2022-07-22T07:53:14;10.65;;;6.70;;
23119;SDS011;11729;50.836;4.330;2022-07-22T07:55:40;10.77;;;6.80;;
23119;SDS011;11729;50.836;4.330;2022-07-22T07:58:07;9.98;;;7.40;;
23119;SDS011;11729;50.836;4.330;2022-07-22T08:00:33;9.77;;;6.97;;
23119;SDS011;11729;50.836;4.330;2022-07-22T08:02:59;9.25;;;6.68;;
23119;SDS011;11729;50.836;4.330;2022-07-22T08:05:26;11.85;;;7.25;;
23119;SDS011;11729;50.836;4.330;2022-07-22T08:07:52;13.60;;;6.72;;
23119;SDS011;11729;50.836;4.330;2022-07-22T08:10:18;16.52;;;7.10;;
23119;SDS011;11729;50.836;4.330;2022-07-22T08:12:45;10.88;;;7.15;;
23119;SDS011;11729;50.836;4.330;2022-07-22T08:15:11;9.45;;;6.68;;
23119;SDS011;11729;50.836;4.330;2022-07-22T08:17:38;9.05;;;6.85;;
23119;SDS011;11729;50.836;4.330;2022-07-22T08:20:04;12.48;;;6.60;;
23119;SDS011;11729;50.836;4.330;2022-07-22T08:22:30;14.90;;;7.03;;
23119;SDS011;11729;50.836;4.330;2022-07-22T08:24:56;10.07;;;6.55;;
23119;SDS011;11729;50.836;4.330;2022-07-22T08:27:22;9.88;;;6.78;;
23119;SDS011;11729;50.836;4.330;2022-07-22T08:29:48;13.88;;;7.40;;
23119;SDS011;11729;50.836;4.330;2022-07-22T08:32:14;8.07;;;6.57;;
23119;SDS011;11729;50.836;4.330;2022-07-22T08:34:39;9.85;;;6.68;;
23119;SDS011;11729;50.836;4.330;2022-07-22T08:37:05;9.90;;;6.65;;
23119;SDS011;11729;50.836;4.330;2022-07-22T08:39:33;9.50;;;6.80;;
23119;SDS011;11729;50.836;4.330;2022-07-22T08:42:00;12.10;;;6.95;;
23119;SDS011;11729;50.836;4.330;2022-07-22T08:44:32;9.40;;;6.68;;
23119;SDS011;11729;50.836;4.330;2022-07-22T08:46:58;11.43;;;6.80;;
23119;SDS011;11729;50.836;4.330;2022-07-22T08:49:25;7.93;;;6.60;;
23119;SDS011;11729;50.836;4.330;2022-07-22T08:51:51;11.18;;;6.93;;
23119;SDS011;11729;50.836;4.330;2022-07-22T08:54:16;12.25;;;7.25;;
23119;SDS011;11729;50.836;4.330;2022-07-22T08:56:46;14.70;;;7.30;;
23119;SDS011;11729;50.836;4.330;2022-07-22T08:59:15;11.27;;;7.20;;
23119;SDS011;11729;50.836;4.330;2022-07-22T09:02:00;9.45;;;6.70;;
23119;SDS011;11729;50.836;4.330;2022-07-22T09:09:55;11.07;;;7.00;;
23119;SDS011;11729;50.836;4.330;2022-07-22T09:12:21;12.73;;;7.03;;
23119;SDS011;11729;50.836;4.330;2022-07-22T09:14:49;9.95;;;6.50;;
23119;SDS011;11729;50.836;4.330;2022-07-22T09:19:56;9.88;;;7.00;;
23119;SDS011;11729;50.836;4.330;2022-07-22T09:25:23;11.13;;;6.70;;
23119;SDS011;11729;50.836;4.330;2022-07-22T09:27:55;8.88;;;6.60;;
23119;SDS011;11729;50.836;4.330;2022-07-22T09:30:48;12.73;;;7.07;;
23119;SDS011;11729;50.836;4.330;2022-07-22T09:33:16;10.75;;;6.75;;
23119;SDS011;11729;50.836;4.330;2022-07-22T09:35:43;10.77;;;6.82;;
23119;SDS011;11729;50.836;4.330;2022-07-22T09:38:10;12.17;;;6.80;;
23119;SDS011;11729;50.836;4.330;2022-07-22T09:40:43;12.05;;;6.70;;
23119;SDS011;11729;50.836;4.330;2022-07-22T09:43:11;10.88;;;6.30;;
23119;SDS011;11729;50.836;4.330;2022-07-22T09:45:51;11.88;;;6.38;;
23119;SDS011;11729;50.836;4.330;2022-07-22T09:48:24;9.68;;;6.93;;
23119;SDS011;11729;50.836;4.330;2022-07-22T09:50:51;12.07;;;6.75;;
23119;SDS011;11729;50.836;4.330;2022-07-22T09:53:19;10.68;;;6.97;;
23119;SDS011;11729;50.836;4.330;2022-07-22T09:55:46;6.97;;;6.28;;
23119;SDS011;11729;50.836;4.330;2022-07-22T09:58:14;10.50;;;7.10;;
23119;SDS011;11729;50.836;4.330;2022-07-22T10:00:40;8.25;;;6.22;;
23119;SDS011;11729;50.836;4.330;2022-07-22T10:03:07;7.38;;;6.43;;
23119;SDS011;11729;50.836;4.330;2022-07-22T10:05:37;7.95;;;6.80;;
23119;SDS011;11729;50.836;4.330;2022-07-22T10:10:33;9.57;;;6.47;;
23119;SDS011;11729;50.836;4.330;2022-07-22T10:13:00;8.88;;;6.70;;
23119;SDS011;11729;50.836;4.330;2022-07-22T10:15:28;9.00;;;6.45;;
23119;SDS011;11729;50.836;4.330;2022-07-22T10:17:58;9.77;;;6.22;;
23119;SDS011;11729;50.836;4.330;2022-07-22T10:20:27;7.40;;;6.10;;
23119;SDS011;11729;50.836;4.330;2022-07-22T10:22:58;9.15;;;5.90;;
23119;SDS011;11729;50.836;4.330;2022-07-22T10:25:29;8.63;;;6.40;;
23119;SDS011;11729;50.836;4.330;2022-07-22T10:27:58;10.52;;;6.50;;
23119;SDS011;11729;50.836;4.330;2022-07-22T10:30:33;14.40;;;6.90;;
23119;SDS011;11729;50.836;4.330;2022-07-22T10:33:01;10.48;;;6.80;;
23119;SDS011;11729;50.836;4.330;2022-07-22T10:35:32;8.35;;;6.13;;
23119;SDS011;11729;50.836;4.330;2022-07-22T10:38:06;10.07;;;6.30;;
23119;SDS011;11729;50.836;4.330;2022-07-22T10:41:18;7.75;;;6.00;;
23119;SDS011;11729;50.836;4.330;2022-07-22T10:43:24;8.25;;;6.22;;
23119;SDS011;11729;50.836;4.330;2022-07-22T10:45:53;9.40;;;6.40;;
23119;SDS011;11729;50.836;4.330;2022-07-22T10:50:51;12.37;;;6.93;;
23119;SDS011;11729;50.836;4.330;2022-07-22T10:53:24;7.22;;;6.28;;
23119;SDS011;11729;50.836;4.330;2022-07-22T10:59:12;9.23;;;6.47;;
23119;SDS011;11729;50.836;4.330;2022-07-22T11:01:42;8.98;;;6.20;;
23119;SDS011;11729;50.836;4.330;2022-07-22T11:04:19;8.48;;;6.43;;
23119;SDS011;11729;50.836;4.330;2022-07-22T11:06:50;8.60;;;6.95;;
23119;SDS011;11729;50.836;4.330;2022-07-22T11:09:19;8.95;;;6.30;;
23119;SDS011;11729;50.836;4.330;2022-07-22T11:11:47;8.68;;;6.32;;
23119;SDS011;11729;50.836;4.330;2022-07-22T11:16:47;8.68;;;6.50;;
23119;SDS011;11729;50.836;4.330;2022-07-22T11:19:18;9.70;;;7.10;;
23119;SDS011;11729;50.836;4.330;2022-07-22T11:21:48;10.63;;;7.07;;
23119;SDS011;11729;50.836;4.330;2022-07-22T11:24:16;7.13;;;6.43;;
23119;SDS011;11729;50.836;4.330;2022-07-22T11:26:44;9.93;;;6.68;;
23119;SDS011;11729;50.836;4.330;2022-07-22T11:29:24;8.30;;;6.43;;
23119;SDS011;11729;50.836;4.330;2022-07-22T11:32:05;11.75;;;7.07;;
23119;SDS011;11729;50.836;4.330;2022-07-22T11:34:35;8.35;;;6.50;;
23119;SDS011;11729;50.836;4.330;2022-07-22T11:37:01;8.68;;;6.80;;
23119;SDS011;11729;50.836;4.330;2022-07-22T11:39:29;10.05;;;7.30;;
23119;SDS011;11729;50.836;4.330;2022-07-22T11:41:56;12.43;;;8.15;;
23119;SDS011;11729;50.836;4.330;2022-07-22T11:44:24;9.05;;;7.40;;
23119;SDS011;11729;50.836;4.330;2022-07-22T11:46:55;9.82;;;7.10;;
23119;SDS011;11729;50.836;4.330;2022-07-22T11:49:23;13.68;;;7.85;;
23119;SDS011;11729;50.836;4.330;2022-07-22T11:51:50;12.68;;;7.75;;
23119;SDS011;11729;50.836;4.330;2022-07-22T11:54:16;10.18;;;7.10;;
23119;SDS011;11729;50.836;4.330;2022-07-22T11:56:42;8.20;;;7.40;;
23119;SDS011;11729;50.836;4.330;2022-07-22T11:59:16;11.50;;;7.30;;
23119;SDS011;11729;50.836;4.330;2022-07-22T12:01:43;11.88;;;8.02;;
23119;SDS011;11729;50.836;4.330;2022-07-22T12:04:10;8.43;;;6.93;;
23119;SDS011;11729;50.836;4.330;2022-07-22T12:06:41;12.73;;;8.13;;
23119;SDS011;11729;50.836;4.330;2022-07-22T12:09:09;13.88;;;7.45;;
23119;SDS011;11729;50.836;4.330;2022-07-22T12:11:45;9.60;;;7.70;;
23119;SDS011;11729;50.836;4.330;2022-07-22T12:14:12;10.90;;;7.38;;
23119;SDS011;11729;50.836;4.330;2022-07-22T12:16:39;8.23;;;7.22;;
23119;SDS011;11729;50.836;4.330;2022-07-22T12:19:07;10.95;;;7.63;;
23119;SDS011;11729;50.836;4.330;2022-07-22T12:21:35;10.75;;;8.30;;
23119;SDS011;11729;50.836;4.330;2022-07-22T12:24:14;8.75;;;7.82;;
23119;SDS011;11729;50.836;4.330;2022-07-22T12:26:45;9.90;;;7.45;;
23119;SDS011;11729;50.836;4.330;2022-07-22T12:31:47;11.30;;;8.13;;
23119;SDS011;11729;50.836;4.330;2022-07-22T12:34:14;14.43;;;7.97;;
23119;SDS011;11729;50.836;4.330;2022-07-22T12:36:46;14.15;;;7.53;;
23119;SDS011;11729;50.836;4.330;2022-07-22T12:39:18;9.18;;;7.65;;
23119;SDS011;11729;50.836;4.330;2022-07-22T12:41:45;8.77;;;7.82;;
23119;SDS011;11729;50.836;4.330;2022-07-22T12:44:20;11.75;;;7.88;;
23119;SDS011;11729;50.836;4.330;2022-07-22T12:46:51;12.27;;;7.70;;
23119;SDS011;11729;50.836;4.330;2022-07-22T12:49:23;9.93;;;7.53;;
23119;SDS011;11729;50.836;4.330;2022-07-22T12:52:12;12.05;;;7.88;;
23119;SDS011;11729;50.836;4.330;2022-07-22T12:54:40;14.30;;;7.85;;
23119;SDS011;11729;50.836;4.330;2022-07-22T12:57:06;13.95;;;7.72;;
23119;SDS011;11729;50.836;4.330;2022-07-22T12:59:33;10.20;;;7.72;;
23119;SDS011;11729;50.836;4.330;2022-07-22T13:02:00;13.40;;;7.68;;
23119;SDS011;11729;50.836;4.330;2022-07-22T13:04:26;8.50;;;7.70;;
23119;SDS011;11729;50.836;4.330;2022-07-22T13:06:52;8.85;;;7.50;;
23119;SDS011;11729;50.836;4.330;2022-07-22T13:09:19;14.30;;;7.72;;
23119;SDS011;11729;50.836;4.330;2022-07-22T13:11:45;11.50;;;7.33;;
23119;SDS011;11729;50.836;4.330;2022-07-22T13:14:11;9.55;;;7.50;;
23119;SDS011;11729;50.836;4.330;2022-07-22T13:16:37;8.93;;;7.70;;
23119;SDS011;11729;50.836;4.330;2022-07-22T13:19:03;10.93;;;7.88;;
23119;SDS011;11729;50.836;4.330;2022-07-22T13:21:30;12.95;;;7.78;;
23119;SDS011;11729;50.836;4.330;2022-07-22T13:23:56;10.27;;;7.13;;
23119;SDS011;11729;50.836;4.330;2022-07-22T13:26:22;15.45;;;8.18;;
23119;SDS011;11729;50.836;4.330;2022-07-22T13:28:49;10.55;;;8.20;;
23119;SDS011;11729;50.836;4.330;2022-07-22T13:31:15;12.25;;;8.10;;
23119;SDS011;11729;50.836;4.330;2022-07-22T13:33:40;9.63;;;7.78;;
23119;SDS011;11729;50.836;4.330;2022-07-22T13:36:06;13.45;;;7.88;;
23119;SDS011;11729;50.836;4.330;2022-07-22T13:38:32;10.27;;;7.55;;
23119;SDS011;11729;50.836;4.330;2022-07-22T13:40:57;13.40;;;8.23;;
23119;SDS011;11729;50.836;4.330;2022-07-22T13:43:24;13.23;;;7.60;;
23119;SDS011;11729;50.836;4.330;2022-07-22T13:45:50;13.00;;;8.40;;
23119;SDS011;11729;50.836;4.330;2022-07-22T13:48:16;12.80;;;7.80;;
23119;SDS011;11729;50.836;4.330;2022-07-22T13:50:43;11.18;;;7.57;;
23119;SDS011;11729;50.836;4.330;2022-07-22T13:53:10;8.55;;;7.72;;
23119;SDS011;11729;50.836;4.330;2022-07-22T13:55:39;11.73;;;8.05;;
23119;SDS011;11729;50.836;4.330;2022-07-22T13:58:05;15.80;;;8.48;;
23119;SDS011;11729;50.836;4.330;2022-07-22T14:00:31;10.25;;;7.80;;
23119;SDS011;11729;50.836;4.330;2022-07-22T14:02:57;9.35;;;7.85;;
23119;SDS011;11729;50.836;4.330;2022-07-22T14:05:23;11.43;;;7.90;;
23119;SDS011;11729;50.836;4.330;2022-07-22T14:07:49;12.60;;;7.63;;
23119;SDS011;11729;50.836;4.330;2022-07-22T14:10:14;10.43;;;7.95;;
23119;SDS011;11729;50.836;4.330;2022-07-22T14:12:40;12.77;;;7.95;;
23119;SDS011;11729;50.836;4.330;2022-07-22T14:15:07;11.52;;;7.55;;
23119;SDS011;11729;50.836;4.330;2022-07-22T14:17:33;13.77;;;7.63;;
23119;SDS011;11729;50.836;4.330;2022-07-22T14:19:59;12.93;;;7.80;;
23119;SDS011;11729;50.836;4.330;2022-07-22T14:22:25;10.85;;;7.90;;
23119;SDS011;11729;50.836;4.330;2022-07-22T14:24:52;11.57;;;8.05;;
23119;SDS011;11729;50.836;4.330;2022-07-22T14:27:18;9.95;;;7.60;;
23119;SDS011;11729;50.836;4.330;2022-07-22T14:29:44;9.50;;;7.50;;
23119;SDS011;11729;50.836;4.330;2022-07-22T14:32:09;9.90;;;7.20;;
23119;SDS011;11729;50.836;4.330;2022-07-22T14:34:35;11.68;;;7.50;;
23119;SDS011;11729;50.836;4.330;2022-07-22T14:37:00;11.07;;;7.70;;
23119;SDS011;11729;50.836;4.330;2022-07-22T14:39:27;10.75;;;8.13;;
23119;SDS011;11729;50.836;4.330;2022-07-22T14:41:54;10.38;;;7.38;;
23119;SDS011;11729;50.836;4.330;2022-07-22T14:44:20;14.75;;;8.13;;
23119;SDS011;11729;50.836;4.330;2022-07-22T14:46:46;14.80;;;8.43;;
23119;SDS011;11729;50.836;4.330;2022-07-22T14:49:12;11.27;;;7.90;;
23119;SDS011;11729;50.836;4.330;2022-07-22T14:51:38;10.07;;;8.20;;
23119;SDS011;11729;50.836;4.330;2022-07-22T14:54:04;12.77;;;8.65;;
23119;SDS011;11729;50.836;4.330;2022-07-22T14:56:31;11.63;;;8.65;;
23119;SDS011;11729;50.836;4.330;2022-07-22T14:58:57;11.18;;;8.93;;